Time;durP1;ratioP1;P1;durP2;ratioP2;P2;SDS_P1;SDS_P2;PMS_P1;PMS_P2;Temp;Humidity;BMP_temperature;BMP_pressure;BME280_temperature;BME280_humidity;BME280_pressure;Samples;Min_cycle;Max_cycle;Signal;HPM_P1;HPM_P2
2022/02/22 00:00:59;;;;;;;6.60;1.10;;;;;;;4.39;70.65;98847.40;106157;1273;24189;-62
2022/02/22 00:03:35;;;;;;;5.00;0.90;;;;;;;4.37;70.89;98847.50;106076;1273;22800;-62
2022/02/22 00:06:08;;;;;;;3.50;0.70;;;;;;;4.36;70.99;98859.98;106142;1273;25273;-62
2022/02/22 00:08:40;;;;;;;3.60;0.70;;;;;;;4.33;71.01;98866.41;106088;1273;22584;-62
2022/02/22 00:11:12;;;;;;;5.20;0.60;;;;;;;4.33;70.95;98872.21;106191;1273;25859;-62
2022/02/22 00:13:43;;;;;;;3.20;0.60;;;;;;;4.32;71.21;98882.60;106062;1273;25378;-62
2022/02/22 00:16:15;;;;;;;4.90;1.00;;;;;;;4.30;71.33;98881.34;106236;1273;24330;-62
2022/02/22 00:18:48;;;;;;;5.60;0.80;;;;;;;4.28;71.50;98888.84;106201;1273;24220;-62
2022/02/22 00:21:19;;;;;;;5.80;1.00;;;;;;;4.27;72.02;98891.12;106169;1273;22564;-62
2022/02/22 00:23:50;;;;;;;5.00;0.70;;;;;;;4.24;72.51;98894.73;106071;1273;22895;-62
2022/02/22 00:26:23;;;;;;;4.60;0.60;;;;;;;4.21;72.40;98901.59;106094;1273;22606;-62
2022/02/22 00:28:58;;;;;;;3.50;0.70;;;;;;;4.19;72.27;98901.60;106226;1273;25964;-62
2022/02/22 00:31:31;;;;;;;4.80;0.70;;;;;;;4.18;72.45;98909.15;106341;1273;24248;-62
2022/02/22 00:34:02;;;;;;;3.70;0.60;;;;;;;4.16;73.27;98917.93;106129;1274;25533;-62
2022/02/22 00:36:34;;;;;;;3.90;0.60;;;;;;;4.13;73.03;98916.73;106005;1274;24272;-62
2022/02/22 00:39:06;;;;;;;2.60;0.50;;;;;;;4.11;73.27;98928.13;106037;1273;22709;-61
2022/02/22 00:41:39;;;;;;;3.20;0.70;;;;;;;4.07;73.61;98930.19;106077;1273;22563;-62
2022/02/22 00:44:11;;;;;;;1.80;0.40;;;;;;;4.01;74.05;98938.90;106264;1272;23070;-62
2022/02/22 00:46:42;;;;;;;4.00;0.40;;;;;;;3.95;73.82;98943.81;106273;1273;24275;-62
2022/02/22 00:49:15;;;;;;;2.40;0.30;;;;;;;3.91;73.70;98948.75;106134;1274;23977;-62
2022/02/22 00:51:46;;;;;;;2.40;0.30;;;;;;;3.89;73.90;98954.88;106100;1273;22565;-62
2022/02/22 00:54:18;;;;;;;0.90;0.20;;;;;;;3.86;73.88;98968.24;106128;1273;26641;-61
2022/02/22 00:56:49;;;;;;;2.90;0.40;;;;;;;3.83;73.61;98972.95;106075;1273;22932;-62
2022/02/22 00:59:21;;;;;;;1.00;0.20;;;;;;;3.81;73.77;98979.11;106209;1273;25339;-61
2022/02/22 01:01:52;;;;;;;1.00;0.20;;;;;;;3.76;73.99;98986.52;106186;1273;22484;-62
2022/02/22 01:04:24;;;;;;;1.30;0.20;;;;;;;3.71;74.01;98999.94;106130;1273;22545;-62
2022/02/22 01:06:56;;;;;;;1.40;0.30;;;;;;;3.65;74.22;99006.52;106299;1273;22614;-62
2022/02/22 01:09:28;;;;;;;2.30;0.30;;;;;;;3.59;74.09;99005.13;106162;1273;22729;-62
2022/02/22 01:12:00;;;;;;;1.70;0.40;;;;;;;3.55;74.04;99007.52;106013;1273;22543;-62
2022/02/22 01:14:31;;;;;;;3.00;0.30;;;;;;;3.53;74.00;99013.94;106340;1273;22540;-62
2022/02/22 01:17:04;;;;;;;2.20;0.40;;;;;;;3.51;74.13;99021.41;106271;1274;22499;-62
2022/02/22 01:19:36;;;;;;;1.40;0.40;;;;;;;3.49;74.07;99023.71;107162;1273;24397;-63
2022/02/22 01:22:08;;;;;;;0.70;0.20;;;;;;;3.48;74.04;99036.58;106264;1273;25277;-63
2022/02/22 01:24:40;;;;;;;2.30;0.50;;;;;;;3.47;73.98;99046.33;106046;1273;22584;-62
2022/02/22 01:27:11;;;;;;;4.00;0.40;;;;;;;3.47;73.99;99053.05;106053;1273;25394;-62
2022/02/22 01:29:44;;;;;;;2.70;0.30;;;;;;;3.47;74.14;99059.36;106096;1273;22670;-62
2022/02/22 01:32:15;;;;;;;3.70;0.40;;;;;;;3.47;74.14;99061.80;106076;1273;25400;-62
2022/02/22 01:34:47;;;;;;;1.30;0.20;;;;;;;3.46;74.20;99064.88;106100;1273;26350;-61
2022/02/22 01:37:18;;;;;;;3.20;0.40;;;;;;;3.45;74.20;99064.70;106129;1273;22629;-62
2022/02/22 01:39:50;;;;;;;3.30;0.30;;;;;;;3.44;74.37;99071.69;105946;1273;25234;-62
2022/02/22 01:42:22;;;;;;;4.50;0.40;;;;;;;3.43;74.58;99076.63;106132;1273;25419;-62
2022/02/22 01:44:54;;;;;;;5.30;0.60;;;;;;;3.42;74.83;99070.61;106156;1273;22630;-62
2022/02/22 01:47:28;;;;;;;7.70;1.10;;;;;;;3.41;74.74;99074.35;106084;1274;22574;-62
2022/02/22 01:50:01;;;;;;;2.80;0.40;;;;;;;3.41;74.63;99082.48;106071;1273;25441;-62
2022/02/22 01:52:32;;;;;;;5.80;0.50;;;;;;;3.42;74.86;99086.77;106418;1261;22685;-65
2022/02/22 01:55:04;;;;;;;5.60;0.50;;;;;;;3.42;74.90;99086.92;105655;1273;25436;-63
2022/02/22 01:57:36;;;;;;;6.10;0.60;;;;;;;3.42;75.01;99089.92;105692;1273;22966;-62
2022/02/22 02:00:11;;;;;;;5.20;0.60;;;;;;;3.41;75.05;99092.26;105837;1273;24296;-63
2022/02/22 02:02:43;;;;;;;4.70;0.50;;;;;;;3.41;75.13;99091.06;105813;1273;22557;-63
2022/02/22 02:05:15;;;;;;;5.60;0.90;;;;;;;3.41;75.15;99095.23;105256;1273;503358;-62
2022/02/22 02:07:47;;;;;;;3.70;0.40;;;;;;;3.41;75.35;99100.59;105862;1271;25491;-63
2022/02/22 02:10:19;;;;;;;4.80;0.70;;;;;;;3.40;75.41;99108.52;105825;1273;24319;-62
2022/02/22 02:12:52;;;;;;;5.10;1.00;;;;;;;3.39;75.42;99110.23;105942;1273;23985;-62
2022/02/22 02:15:24;;;;;;;3.70;0.80;;;;;;;3.37;75.64;99112.73;105834;1273;22560;-63
2022/02/22 02:17:55;;;;;;;7.50;0.90;;;;;;;3.36;75.97;99114.20;105747;1271;22669;-63
2022/02/22 02:20:26;;;;;;;4.70;0.70;;;;;;;3.36;76.01;99120.05;105742;1273;22607;-65
2022/02/22 02:22:59;;;;;;;8.30;1.00;;;;;;;3.34;75.93;99122.31;106294;1273;22542;-64
2022/02/22 02:25:31;;;;;;;5.10;0.90;;;;;;;3.34;75.97;99132.33;105868;1273;24381;-63
2022/02/22 02:28:03;;;;;;;8.20;0.70;;;;;;;3.33;76.02;99133.48;105732;1271;22562;-63
2022/02/22 02:30:34;;;;;;;7.50;0.90;;;;;;;3.33;75.92;99141.14;105671;1271;22649;-63
2022/02/22 02:33:06;;;;;;;3.80;0.80;;;;;;;3.33;76.10;99146.11;105847;1273;26575;-63
2022/02/22 02:35:39;;;;;;;3.90;0.70;;;;;;;3.33;76.01;99149.81;105867;1271;25298;-63
2022/02/22 02:38:11;;;;;;;4.60;0.90;;;;;;;3.33;76.20;99155.23;105709;1271;22633;-63
2022/02/22 02:40:42;;;;;;;5.30;0.90;;;;;;;3.33;76.25;99157.19;105910;1273;23216;-63
2022/02/22 02:43:14;;;;;;;4.10;0.50;;;;;;;3.33;76.22;99153.17;105710;1273;22553;-63
2022/02/22 02:45:45;;;;;;;5.30;0.70;;;;;;;3.33;76.31;99159.74;106164;1271;23118;-63
2022/02/22 02:48:17;;;;;;;5.20;0.70;;;;;;;3.34;76.36;99162.75;105729;1273;22595;-63
2022/02/22 02:50:50;;;;;;;7.20;0.70;;;;;;;3.35;76.56;99165.97;105779;1273;22542;-63
2022/02/22 02:53:21;;;;;;;4.40;0.80;;;;;;;3.35;76.61;99168.48;105732;1272;25417;-65
2022/02/22 02:55:53;;;;;;;4.30;0.80;;;;;;;3.36;76.76;99169.70;105809;1273;24227;-63
2022/02/22 02:58:24;;;;;;;7.00;0.80;;;;;;;3.36;76.76;99173.17;105961;1272;25325;-63
2022/02/22 03:00:56;;;;;;;6.00;0.70;;;;;;;3.36;76.79;99176.88;105599;1271;22532;-63
2022/02/22 03:03:28;;;;;;;6.20;1.00;;;;;;;3.34;76.95;99178.19;105605;1271;24415;-63
2022/02/22 03:06:00;;;;;;;9.70;1.00;;;;;;;3.34;77.01;99175.21;105782;1271;22875;-63
2022/02/22 03:08:31;;;;;;;11.50;1.00;;;;;;;3.34;77.07;99174.83;105634;1273;26104;-63
2022/02/22 03:11:03;;;;;;;6.10;0.70;;;;;;;3.33;77.11;99178.86;105561;1273;25255;-63
2022/02/22 03:13:35;;;;;;;5.10;0.70;;;;;;;3.34;77.13;99181.68;105726;1273;22537;-63
2022/02/22 03:16:08;;;;;;;9.70;0.90;;;;;;;3.35;77.20;99181.66;105551;1273;22565;-63
2022/02/22 03:18:42;;;;;;;4.80;0.90;;;;;;;3.34;77.23;99181.98;105788;1273;22669;-63
2022/02/22 03:21:14;;;;;;;4.20;0.70;;;;;;;3.34;77.12;99181.98;105938;1271;24262;-65
2022/02/22 03:23:46;;;;;;;4.00;0.70;;;;;;;3.34;77.28;99182.36;105759;1273;24348;-63
2022/02/22 03:26:18;;;;;;;5.10;0.80;;;;;;;3.35;77.24;99184.94;105543;1273;24279;-63
2022/02/22 03:28:50;;;;;;;6.90;0.90;;;;;;;3.35;77.43;99193.52;105795;1271;25253;-63
2022/02/22 03:31:21;;;;;;;7.50;0.80;;;;;;;3.36;77.46;99197.76;105867;1273;25239;-65
2022/02/22 03:33:54;;;;;;;9.60;0.90;;;;;;;3.35;77.72;99203.61;105809;1273;22543;-63
2022/02/22 03:36:26;;;;;;;8.60;1.00;;;;;;;3.35;77.90;99208.58;105762;1272;25423;-64
2022/02/22 03:38:58;;;;;;;11.10;1.20;;;;;;;3.36;77.85;99200.58;105665;1273;25522;-65
2022/02/22 03:41:30;;;;;;;6.60;1.00;;;;;;;3.35;77.80;99201.08;105750;1273;22598;-65
2022/02/22 03:44:02;;;;;;;7.30;0.90;;;;;;;3.35;78.05;99201.80;105757;1273;22547;-64
2022/02/22 03:46:34;;;;;;;5.60;1.00;;;;;;;3.34;77.98;99203.05;105709;1271;23974;-63
2022/02/22 03:49:06;;;;;;;6.30;0.90;;;;;;;3.34;77.98;99213.92;105748;1272;22593;-64
2022/02/22 03:51:37;;;;;;;4.60;0.60;;;;;;;3.34;77.82;99216.11;105652;1273;24994;-65
2022/02/22 03:54:09;;;;;;;10.00;0.90;;;;;;;3.35;77.92;99220.49;105742;1273;24280;-62
2022/02/22 03:56:40;;;;;;;5.10;1.00;;;;;;;3.36;77.80;99222.67;105847;1271;24478;-65
2022/02/22 03:59:12;;;;;;;7.40;0.80;;;;;;;3.39;77.82;99227.83;105765;1273;22538;-64
2022/02/22 04:01:43;;;;;;;9.10;1.10;;;;;;;3.39;77.82;99228.23;105820;1271;25386;-65
2022/02/22 04:04:14;;;;;;;7.70;0.80;;;;;;;3.39;77.86;99234.98;105973;1273;24247;-63
2022/02/22 04:06:45;;;;;;;6.70;0.90;;;;;;;3.40;77.84;99240.92;105573;1273;25383;-63
2022/02/22 04:09:18;;;;;;;8.00;0.70;;;;;;;3.43;77.84;99247.84;105777;1271;22734;-63
2022/02/22 04:11:50;;;;;;;6.50;0.70;;;;;;;3.44;77.73;99249.70;105658;1271;24241;-64
2022/02/22 04:14:21;;;;;;;6.30;0.60;;;;;;;3.44;77.89;99253.30;105980;1273;24227;-64
2022/02/22 04:16:52;;;;;;;7.20;0.70;;;;;;;3.46;77.93;99261.98;105933;1272;22548;-63
2022/02/22 04:19:24;;;;;;;9.60;0.80;;;;;;;3.46;78.03;99261.89;105766;1272;25258;-63
2022/02/22 04:21:56;;;;;;;11.50;0.90;;;;;;;3.49;78.18;99266.61;105693;1271;22553;-64
2022/02/22 04:24:27;;;;;;;6.80;0.80;;;;;;;3.51;78.03;99274.96;105783;1273;25409;-64
2022/02/22 04:26:59;;;;;;;6.80;0.80;;;;;;;3.53;78.08;99276.23;105900;1271;26500;-63
2022/02/22 04:29:31;;;;;;;6.70;0.70;;;;;;;3.55;78.00;99287.73;105807;1271;25373;-61
2022/02/22 04:32:03;;;;;;;9.20;0.80;;;;;;;3.56;78.21;99293.04;106098;1273;22583;-62
2022/02/22 04:34:34;;;;;;;7.00;0.80;;;;;;;3.58;78.32;99303.39;106013;1271;25373;-63
2022/02/22 04:37:12;;;;;;;7.40;0.80;;;;;;;3.59;78.53;99302.92;105630;1271;22588;-63
2022/02/22 04:39:44;;;;;;;8.20;0.80;;;;;;;3.61;78.50;99310.41;105454;1271;24439;-63
2022/02/22 04:42:16;;;;;;;6.20;1.80;;;;;;;3.62;78.33;99313.28;105997;1272;22560;-63
2022/02/22 04:44:47;;;;;;;6.70;0.80;;;;;;;3.63;78.49;99321.11;106173;1271;25413;-63
2022/02/22 04:47:19;;;;;;;9.20;0.80;;;;;;;3.64;78.51;99324.49;105649;1272;25555;-63
2022/02/22 04:49:51;;;;;;;11.00;1.00;;;;;;;3.65;78.46;99330.70;105623;1271;24232;-63
2022/02/22 04:52:22;;;;;;;5.90;0.90;;;;;;;3.64;78.39;99331.17;105494;1271;22544;-64
2022/02/22 04:54:55;;;;;;;11.30;0.90;;;;;;;3.64;78.47;99333.08;105532;1271;22547;-62
2022/02/22 04:57:26;;;;;;;5.20;0.90;;;;;;;3.64;78.48;99338.36;105820;1272;22714;-63
2022/02/22 04:59:57;;;;;;;7.40;0.70;;;;;;;3.65;78.59;99342.98;105651;1271;22542;-63
2022/02/22 05:02:30;;;;;;;6.30;0.80;;;;;;;3.67;78.65;99347.96;105577;1271;22766;-63
2022/02/22 05:05:02;;;;;;;7.70;1.00;;;;;;;3.68;78.75;99355.58;105839;1273;23975;-63
2022/02/22 05:07:33;;;;;;;9.00;1.10;;;;;;;3.69;78.77;99350.48;106042;1271;22544;-65
2022/02/22 05:10:07;;;;;;;7.10;0.80;;;;;;;3.69;78.71;99355.83;105822;1271;22551;-61
2022/02/22 05:12:38;;;;;;;4.70;0.90;;;;;;;3.70;78.67;99356.67;106087;1272;25521;-62
2022/02/22 05:15:12;;;;;;;9.90;1.20;;;;;;;3.70;78.90;99360.29;105816;1271;24366;-66
2022/02/22 05:17:44;;;;;;;4.30;0.80;;;;;;;3.71;78.94;99360.44;106151;1273;25248;-61
2022/02/22 05:20:17;;;;;;;7.10;0.80;;;;;;;3.71;78.90;99364.98;105515;1271;22715;-62
2022/02/22 05:22:50;;;;;;;4.50;0.70;;;;;;;3.71;79.09;99363.80;105915;1271;23222;-62
2022/02/22 05:25:21;;;;;;;7.40;1.00;;;;;;;3.72;79.25;99365.76;105837;1273;25225;-60
2022/02/22 05:27:52;;;;;;;4.00;0.80;;;;;;;3.73;79.29;99372.11;105537;1271;24416;-64
2022/02/22 05:30:24;;;;;;;5.20;0.80;;;;;;;3.73;79.34;99374.37;105556;1273;22585;-61
2022/02/22 05:32:55;;;;;;;3.40;0.80;;;;;;;3.72;79.24;99371.89;106075;1271;23053;-61
2022/02/22 05:35:27;;;;;;;6.30;1.00;;;;;;;3.72;79.27;99373.64;105880;1271;22564;-61
2022/02/22 05:37:59;;;;;;;5.40;0.90;;;;;;;3.72;79.34;99379.86;105751;1271;22589;-61
2022/02/22 05:40:31;;;;;;;3.30;0.80;;;;;;;3.72;79.61;99382.13;105676;1272;22658;-60
2022/02/22 05:43:03;;;;;;;4.80;1.00;;;;;;;3.73;79.69;99382.80;105558;1271;22546;-60
2022/02/22 05:45:35;;;;;;;5.60;1.20;;;;;;;3.74;79.52;99385.30;105884;1271;24858;-59
2022/02/22 05:48:07;;;;;;;7.10;0.80;;;;;;;3.75;79.51;99394.65;105588;1272;25368;-60
2022/02/22 05:50:39;;;;;;;5.00;0.70;;;;;;;3.76;79.58;99396.59;105787;1271;24383;-55
2022/02/22 05:53:10;;;;;;;7.10;0.90;;;;;;;3.75;79.75;99398.11;105723;1271;22561;-57
2022/02/22 05:55:42;;;;;;;7.80;1.10;;;;;;;3.77;79.74;99402.61;105845;1273;22754;-55
2022/02/22 05:58:14;;;;;;;4.90;0.70;;;;;;;3.77;79.68;99407.19;105874;1271;24305;-61
2022/02/22 06:00:47;;;;;;;4.20;0.90;;;;;;;3.78;79.63;99410.88;105812;1271;22558;-56
2022/02/22 06:03:19;;;;;;;8.00;0.90;;;;;;;3.78;79.68;99417.71;105631;1271;23114;-54
2022/02/22 06:05:50;;;;;;;6.10;1.00;;;;;;;3.79;79.92;99424.23;105957;1271;25277;-57
2022/02/22 06:08:22;;;;;;;8.10;0.90;;;;;;;3.81;79.92;99423.52;105695;1273;25259;-58
2022/02/22 06:10:54;;;;;;;7.00;0.80;;;;;;;3.83;79.73;99426.59;105963;1273;25610;-58
2022/02/22 06:13:25;;;;;;;7.50;1.10;;;;;;;3.85;79.82;99437.40;105533;1273;22622;-55
2022/02/22 06:15:58;;;;;;;9.20;1.50;;;;;;;3.87;79.73;99439.75;105834;1273;22708;-56
2022/02/22 06:18:29;;;;;;;6.00;1.00;;;;;;;3.89;79.69;99440.30;105628;1273;25227;-56
2022/02/22 06:21:01;;;;;;;5.10;0.90;;;;;;;3.92;79.81;99446.13;105817;1273;25500;-54
2022/02/22 06:23:32;;;;;;;9.80;1.20;;;;;;;3.95;79.80;99448.84;105718;1273;23673;-56
2022/02/22 06:26:04;;;;;;;5.30;1.00;;;;;;;3.98;79.58;99452.59;105577;1273;22639;-58
2022/02/22 06:28:36;;;;;;;5.40;1.20;;;;;;;4.01;79.47;99456.35;105604;1273;24310;-57
2022/02/22 06:31:08;;;;;;;4.10;0.90;;;;;;;4.04;79.57;99459.80;105729;1273;22557;-59
2022/02/22 06:33:40;;;;;;;12.10;1.50;;;;;;;4.06;79.36;99462.23;106018;1273;25314;-56
2022/02/22 06:36:11;;;;;;;10.30;1.30;;;;;;;4.09;79.42;99469.15;105864;1273;22553;-56
2022/02/22 06:38:43;;;;;;;7.90;1.10;;;;;;;4.11;79.26;99474.59;105559;1273;25408;-54
2022/02/22 06:41:14;;;;;;;5.10;1.00;;;;;;;4.14;79.32;99481.11;105783;1273;24273;-54
2022/02/22 06:43:46;;;;;;;9.50;1.10;;;;;;;4.15;79.29;99482.46;105956;1273;22584;-55
2022/02/22 06:46:18;;;;;;;5.80;1.10;;;;;;;4.17;79.17;99488.40;105770;1273;23940;-55
2022/02/22 06:48:50;;;;;;;6.20;0.70;;;;;;;4.19;79.13;99494.08;105898;1273;22520;-57
2022/02/22 06:51:23;;;;;;;6.90;0.80;;;;;;;4.21;79.19;99495.84;105902;1273;24378;-57
2022/02/22 06:53:55;;;;;;;7.50;1.00;;;;;;;4.22;79.48;99499.90;105774;1273;25378;-55
2022/02/22 06:56:27;;;;;;;4.50;0.70;;;;;;;4.22;79.64;99507.15;105728;1273;23970;-56
2022/02/22 06:58:59;;;;;;;7.60;0.80;;;;;;;4.22;79.95;99507.18;105798;1273;25446;-55
2022/02/22 07:01:31;;;;;;;9.20;1.70;;;;;;;4.20;79.91;99504.77;105753;1273;24313;-56
2022/02/22 07:04:03;;;;;;;8.20;0.90;;;;;;;4.21;79.84;99505.60;105626;1273;25375;-58
2022/02/22 07:06:35;;;;;;;6.30;0.90;;;;;;;4.22;79.90;99506.90;106076;1273;24206;-54
2022/02/22 07:09:07;;;;;;;8.90;0.90;;;;;;;4.24;79.88;99512.22;105729;1272;22545;-56
2022/02/22 07:11:39;;;;;;;6.60;1.20;;;;;;;4.26;79.89;99516.23;105901;1273;25426;-56
2022/02/22 07:14:10;;;;;;;12.20;1.30;;;;;;;4.29;79.84;99529.31;105924;1271;25501;-57
2022/02/22 07:16:42;;;;;;;9.60;1.20;;;;;;;4.33;79.81;99534.52;106101;1273;23214;-58
2022/02/22 07:19:13;;;;;;;9.40;2.30;;;;;;;4.37;79.80;99533.18;105884;1273;25282;-59
2022/02/22 07:21:46;;;;;;;7.70;1.10;;;;;;;4.40;79.59;99531.54;105821;1273;22560;-56
2022/02/22 07:24:17;;;;;;;5.30;0.90;;;;;;;4.42;79.54;99534.80;105629;1273;22543;-55
2022/02/22 07:26:48;;;;;;;8.10;1.10;;;;;;;4.44;79.53;99537.20;105690;1273;26496;-56
2022/02/22 07:29:21;;;;;;;7.70;1.50;;;;;;;4.47;79.52;99536.24;105512;1273;24234;-56
2022/02/22 07:31:54;;;;;;;6.70;1.10;;;;;;;4.51;79.37;99543.04;106078;1273;25253;-57
2022/02/22 07:34:25;;;;;;;8.60;1.00;;;;;;;4.54;79.35;99551.20;105894;1273;22958;-56
2022/02/22 07:36:58;;;;;;;15.10;1.30;;;;;;;4.57;79.31;99554.16;105685;1273;25281;-57
2022/02/22 07:39:31;;;;;;;8.40;1.10;;;;;;;4.61;79.24;99561.36;105690;1273;22669;-56
2022/02/22 07:42:05;;;;;;;4.70;1.20;;;;;;;4.66;79.30;99564.64;105762;1273;24247;-54
2022/02/22 07:44:37;;;;;;;9.00;1.00;;;;;;;4.72;79.27;99571.99;105668;1273;24294;-55
2022/02/22 07:47:09;;;;;;;10.60;1.20;;;;;;;4.76;78.98;99576.15;105846;1273;22619;-54
2022/02/22 07:49:41;;;;;;;5.00;1.10;;;;;;;4.80;78.97;99583.52;105713;1273;22568;-56
2022/02/22 07:52:12;;;;;;;8.30;1.10;;;;;;;4.84;78.95;99582.30;105829;1273;24250;-56
2022/02/22 07:54:45;;;;;;;9.40;1.20;;;;;;;4.88;78.66;99587.66;105588;1273;24299;-56
2022/02/22 07:59:49;;;;;;;5.00;0.70;;;;;;;4.93;78.67;99599.48;105842;1258;22548;-60
2022/02/22 08:02:21;;;;;;;7.20;0.90;;;;;;;4.98;78.68;99605.54;106013;1273;25225;-58
2022/02/22 08:04:54;;;;;;;6.30;0.90;;;;;;;5.02;78.54;99609.04;105910;1273;22541;-59
2022/02/22 08:07:27;;;;;;;7.10;1.20;;;;;;;5.04;78.56;99609.16;105578;1273;22562;-59
2022/02/22 08:10:00;;;;;;;5.00;0.60;;;;;;;5.09;78.53;99617.29;105906;1273;24419;-58
2022/02/22 08:12:32;;;;;;;4.60;0.80;;;;;;;5.10;78.33;99619.11;105726;1273;25542;-57
2022/02/22 08:15:06;;;;;;;5.00;0.80;;;;;;;5.13;78.47;99613.70;105788;1273;22538;-59
2022/02/22 08:17:42;;;;;;;6.50;0.90;;;;;;;5.16;78.43;99621.95;105817;1273;25533;-58
2022/02/22 08:20:14;;;;;;;6.40;0.70;;;;;;;5.20;78.35;99628.45;105771;1273;22588;-56
2022/02/22 08:22:47;;;;;;;6.10;0.70;;;;;;;5.23;78.37;99630.30;105606;1273;23065;-57
2022/02/22 08:25:20;;;;;;;4.30;0.70;;;;;;;5.25;78.23;99637.10;106906;1273;25347;-57
2022/02/22 08:27:52;;;;;;;6.10;0.90;;;;;;;5.26;78.26;99640.29;106517;1273;22616;-59
2022/02/22 08:30:25;;;;;;;4.60;0.70;;;;;;;5.28;78.16;99644.78;106383;1273;22636;-58
2022/02/22 08:32:57;;;;;;;4.10;0.80;;;;;;;5.30;78.14;99649.14;105855;1273;24314;-58
2022/02/22 08:35:28;;;;;;;7.40;0.90;;;;;;;5.32;78.04;99651.81;105683;1273;24405;-58
2022/02/22 08:38:00;;;;;;;3.70;0.80;;;;;;;5.33;77.99;99651.21;105870;1273;25460;-60
2022/02/22 08:40:33;;;;;;;5.20;0.80;;;;;;;5.37;78.20;99655.73;105746;1273;22561;-58
2022/02/22 08:43:05;;;;;;;5.60;0.70;;;;;;;5.43;78.17;99665.63;105773;1273;23203;-59
2022/02/22 08:45:37;;;;;;;5.90;0.80;;;;;;;5.46;78.06;99672.36;105785;1273;25385;-58
2022/02/22 08:48:09;;;;;;;3.10;0.70;;;;;;;5.44;78.12;99683.58;105934;1273;25551;-60
2022/02/22 08:50:41;;;;;;;4.00;0.70;;;;;;;5.40;78.56;99683.37;105833;1273;22547;-58
2022/02/22 08:53:14;;;;;;;9.40;1.10;;;;;;;5.34;79.07;99687.65;105782;1273;24081;-57
2022/02/22 08:55:45;;;;;;;6.00;1.30;;;;;;;5.24;79.04;99691.61;105684;1273;25385;-58
2022/02/22 08:58:21;;;;;;;9.70;1.00;;;;;;;5.18;79.17;99699.13;105618;1273;26527;-58
2022/02/22 09:00:53;;;;;;;10.10;1.10;;;;;;;5.10;78.88;99706.69;105790;1273;24621;-57
2022/02/22 09:03:27;;;;;;;7.80;1.10;;;;;;;5.05;78.93;99710.39;105647;1273;22553;-57
2022/02/22 09:06:00;;;;;;;9.70;1.20;;;;;;;5.02;78.34;99719.70;105688;1273;25357;-60
2022/02/22 09:08:32;;;;;;;11.50;0.80;;;;;;;4.99;78.24;99730.31;105462;1273;24323;-58
2022/02/22 09:11:04;;;;;;;9.70;1.80;;;;;;;4.93;77.75;99728.95;107310;1273;24284;-57
2022/02/22 09:13:35;;;;;;;12.00;1.10;;;;;;;4.89;77.70;99741.35;105427;1273;22557;-57
2022/02/22 09:16:07;;;;;;;10.40;0.90;;;;;;;4.87;77.48;99745.20;106978;1273;25402;-58
2022/02/22 09:18:39;;;;;;;10.70;1.00;;;;;;;4.86;76.96;99750.00;105629;1273;22680;-59
2022/02/22 09:21:10;;;;;;;15.50;1.40;;;;;;;4.83;76.32;99757.36;105564;1273;22545;-58
2022/02/22 09:23:41;;;;;;;11.90;1.10;;;;;;;4.79;77.18;99753.80;105644;1273;25847;-58
2022/02/22 09:26:12;;;;;;;17.90;1.30;;;;;;;4.75;77.72;99750.94;105585;1273;22576;-59
2022/02/22 09:28:45;;;;;;;16.60;1.30;;;;;;;4.73;76.85;99756.09;105659;1273;23071;-59
2022/02/22 09:31:17;;;;;;;10.30;1.50;;;;;;;4.72;76.34;99759.58;105617;1273;22668;-58
2022/02/22 09:33:48;;;;;;;17.50;1.20;;;;;;;4.72;76.15;99769.87;105692;1273;22560;-58
2022/02/22 09:36:19;;;;;;;11.70;1.10;;;;;;;4.71;76.34;99780.97;105663;1272;22596;-58
2022/02/22 09:38:50;;;;;;;10.90;1.30;;;;;;;4.70;76.27;99787.62;105682;1273;25273;-59
2022/02/22 09:41:21;;;;;;;16.00;1.60;;;;;;;4.69;75.83;99787.77;105643;1272;22583;-59
2022/02/22 09:43:52;;;;;;;23.00;1.90;;;;;;;4.69;74.96;99790.70;105667;1273;25344;-59
2022/02/22 09:46:24;;;;;;;14.30;1.30;;;;;;;4.70;74.20;99791.92;105567;1273;26333;-58
2022/02/22 09:48:55;;;;;;;11.50;1.70;;;;;;;4.70;73.87;99785.98;105760;1273;22631;-60
2022/02/22 09:51:26;;;;;;;13.80;1.00;;;;;;;4.73;72.93;99791.55;105608;1273;25329;-59
2022/02/22 09:53:57;;;;;;;16.00;1.50;;;;;;;4.76;72.54;99799.10;105654;1273;23398;-57
2022/02/22 09:56:29;;;;;;;18.50;1.80;;;;;;;4.80;72.69;99803.25;105695;1273;22541;-62
2022/02/22 09:59:00;;;;;;;14.00;1.60;;;;;;;4.83;70.73;99803.94;105704;1273;22596;-58
2022/02/22 10:01:40;;;;;;;11.00;1.00;;;;;;;4.84;69.58;99808.92;105772;1272;22781;-58
2022/02/22 10:04:12;;;;;;;10.90;0.90;;;;;;;4.87;69.99;99818.94;105800;1273;22831;-58
2022/02/22 10:06:43;;;;;;;16.80;1.10;;;;;;;4.89;69.89;99826.85;105707;1273;22572;-58
2022/02/22 10:09:14;;;;;;;10.60;0.70;;;;;;;4.89;70.17;99829.38;105578;1273;27458;-58
2022/02/22 10:11:50;;;;;;;12.40;0.90;;;;;;;4.90;69.89;99832.17;105688;1273;24287;-58
2022/02/22 10:14:27;;;;;;;15.30;1.90;;;;;;;4.92;69.44;99834.49;105674;1273;24891;-58
2022/02/22 10:17:00;;;;;;;22.10;2.10;;;;;;;4.97;68.75;99837.07;105876;1273;25454;-58
2022/02/22 10:19:34;;;;;;;19.70;1.50;;;;;;;5.02;67.59;99833.08;105738;1273;22721;-58
2022/02/22 10:22:09;;;;;;;12.40;1.30;;;;;;;5.12;67.22;99830.20;105667;1273;24244;-58
2022/02/22 10:24:40;;;;;;;11.70;1.00;;;;;;;5.22;67.56;99833.92;105687;1273;22570;-57
2022/02/22 10:27:12;;;;;;;9.00;0.90;;;;;;;5.40;64.93;99842.35;105759;1273;24419;-59
2022/02/22 10:29:43;;;;;;;17.60;1.30;;;;;;;5.51;64.52;99836.43;105746;1273;22568;-56
2022/02/22 10:32:16;;;;;;;10.70;1.20;;;;;;;5.57;65.31;99838.13;105658;1273;25414;-57
2022/02/22 10:34:51;;;;;;;14.90;1.10;;;;;;;5.61;65.36;99843.19;105693;1273;25236;-58
2022/02/22 10:37:33;;;;;;;20.40;1.60;;;;;;;5.62;64.13;99848.02;105820;1273;24575;-58
2022/02/22 10:40:06;;;;;;;11.70;0.90;;;;;;;5.62;65.17;99850.17;105665;1273;24309;-60
2022/02/22 10:42:40;;;;;;;13.90;1.00;;;;;;;5.62;65.27;99846.95;105648;1273;22544;-56
2022/02/22 10:45:13;;;;;;;20.00;1.40;;;;;;;5.59;65.26;99844.60;105646;1273;22587;-58
2022/02/22 10:47:45;;;;;;;18.70;1.50;;;;;;;5.57;66.03;99857.27;105772;1273;25181;-58
2022/02/22 10:50:17;;;;;;;13.10;1.00;;;;;;;5.57;66.33;99866.09;105779;1273;24207;-58
2022/02/22 10:52:48;;;;;;;12.00;1.50;;;;;;;5.58;66.05;99864.98;105724;1272;22731;-59
2022/02/22 10:55:20;;;;;;;15.80;1.80;;;;;;;5.55;64.87;99871.98;105575;1273;25367;-58
2022/02/22 10:57:52;;;;;;;15.20;1.30;;;;;;;5.46;64.53;99884.10;105593;1273;25308;-56
2022/02/22 11:00:24;;;;;;;6.70;0.90;;;;;;;5.40;63.68;99889.72;105667;1273;22649;-58
2022/02/22 11:02:55;;;;;;;13.40;1.10;;;;;;;5.35;62.15;99884.76;105590;1273;22798;-58
2022/02/22 11:05:27;;;;;;;15.50;1.20;;;;;;;5.30;61.74;99884.14;105661;1273;25270;-58
2022/02/22 11:07:59;;;;;;;13.60;2.20;;;;;;;5.34;62.57;99889.38;105835;1273;25514;-57
2022/02/22 11:10:31;;;;;;;18.80;1.90;;;;;;;5.45;61.74;99892.05;105696;1272;22580;-57
2022/02/22 11:13:04;;;;;;;15.00;1.40;;;;;;;5.53;61.27;99887.30;105748;1273;22728;-56
2022/02/22 11:15:37;;;;;;;10.30;0.90;;;;;;;5.63;60.52;99890.58;105753;1273;22540;-58
2022/02/22 11:18:21;;;;;;;12.20;1.30;;;;;;;5.71;60.89;99891.98;105890;1273;24321;-58
2022/02/22 11:20:53;;;;;;;13.50;1.20;;;;;;;5.80;60.17;99894.11;105928;1273;24242;-59
2022/02/22 11:23:29;;;;;;;10.70;1.00;;;;;;;5.86;60.16;99892.25;105844;1273;24274;-58
2022/02/22 11:26:14;;;;;;;11.30;1.00;;;;;;;5.90;60.68;99891.91;106014;1273;22717;-58
2022/02/22 11:28:47;;;;;;;10.30;1.10;;;;;;;5.96;60.26;99891.23;105692;1273;23400;-58
2022/02/22 11:31:21;;;;;;;15.10;1.10;;;;;;;6.00;59.16;99895.27;105726;1273;24298;-60
2022/02/22 11:33:59;;;;;;;12.60;1.00;;;;;;;6.01;59.71;99892.65;105685;1273;24393;-58
2022/02/22 11:36:34;;;;;;;16.80;1.70;;;;;;;6.06;59.94;99896.98;105943;1273;25447;-58
2022/02/22 11:39:08;;;;;;;12.10;1.20;;;;;;;6.13;60.39;99894.95;105753;1273;22569;-58
2022/02/22 11:41:43;;;;;;;16.40;1.10;;;;;;;6.28;61.00;99905.91;105710;1273;22626;-59
2022/02/22 11:44:18;;;;;;;9.60;1.00;;;;;;;6.42;60.87;99908.42;105590;1273;22600;-58
2022/02/22 11:46:52;;;;;;;14.80;1.30;;;;;;;6.51;60.67;99912.42;105690;1273;25398;-59
2022/02/22 11:49:27;;;;;;;14.90;1.30;;;;;;;6.55;59.96;99912.58;105661;1273;25906;-58
2022/02/22 11:52:12;;;;;;;17.90;1.70;;;;;;;6.55;60.21;99915.02;105690;1273;25430;-57
2022/02/22 11:54:45;;;;;;;13.70;1.10;;;;;;;6.61;60.03;99919.46;105630;1273;25279;-58
2022/02/22 11:57:18;;;;;;;12.30;1.70;;;;;;;6.64;60.32;99918.77;105659;1273;22708;-59